19MA weather

Waine Heliport
Nantucket, Massachusetts, United States

Public forecast

Using degrees Fahrenheit for public forecast. Weather courtesy of forecast.io.

Closest aviation weather report (METAR) to Waine Heliport

Closest report is Nantucket Memorial Airport, 4.5 nm (8.3 km) ESE. Retrieved 2020/06/02 19:53 UTC (24 minutes ago):

KACK 021953Z 19009KT 10SM CLR 16/09 A2994 RMK AO2 SLP138 T01560094

Closest aviation forecast (TAF) to Waine Heliport

Closest forecast is Nantucket Memorial Airport, 4.5 nm (8.3 km) ESE. Retrieved 2020/06/02 18:28 UTC (2 hours ago):

TAF KACK 021726Z 0218/0318 17009KT P6SM SKC FM022300 19010G17KT P6SM BKN100 FM030600 21008KT 1SM BR OVC070 FM031000 22008KT 4SM BR VCSH OVC020 FM031200 22013KT P6SM BKN008 FM031500 22014G22KT P6SM BKN003